Time;durP1;ratioP1;P1;durP2;ratioP2;P2;SDS_P1;SDS_P2;PMS_P1;PMS_P2;Temp;Humidity;BMP_temperature;BMP_pressure;BME280_temperature;BME280_humidity;BME280_pressure;Samples;Min_cycle;Max_cycle;Signal;HPM_P1;HPM_P2
2021/03/13 05:43:43;;;;;;;3.08;1.30;;;;;;;;;;6244017;22;883509;-78
2021/03/13 05:46:09;;;;;;;7.32;1.30;;;;;;;;;;6314679;22;20117;-77
2021/03/13 05:48:35;;;;;;;6.85;1.90;;;;;;;;;;6286312;22;20114;-78
2021/03/13 05:51:01;;;;;;;4.80;1.20;;;;;;;;;;6314693;22;20033;-80
2021/03/13 05:53:27;;;;;;;7.03;1.55;;;;;;;;;;6290616;22;20734;-78
2021/03/13 05:55:53;;;;;;;3.85;1.30;;;;;;;;;;6284321;22;20003;-77
2021/03/13 06:00:54;;;;;;;5.70;1.70;;;;;;;;;;6253651;23;20022;-84
2021/03/13 06:03:19;;;;;;;5.80;1.20;;;;;;;;;;6252790;23;19995;-83
2021/03/13 06:05:46;;;;;;;7.78;2.00;;;;;;;;;;6226062;23;20083;-83
2021/03/13 06:08:16;;;;;;;5.45;1.60;;;;;;;;;;6226504;23;20484;-82
2021/03/13 06:10:41;;;;;;;8.10;1.05;;;;;;;;;;6227602;23;20000;-83
2021/03/13 06:25:49;;;;;;;5.82;2.53;;;;;;;;;;5135688;27;20350;-85
2021/03/13 06:28:19;;;;;;;3.60;1.20;;;;;;;;;;5117628;27;20043;-85
2021/03/13 06:30:52;;;;;;;4.80;1.45;;;;;;;;;;5101805;28;20027;-84
2021/03/13 06:33:25;;;;;;;4.82;1.85;;;;;;;;;;5115316;28;20027;-86
2021/03/13 06:35:52;;;;;;;5.57;1.60;;;;;;;;;;5100968;28;20111;-84
2021/03/13 06:38:21;;;;;;;5.60;1.38;;;;;;;;;;5094840;28;20019;-84
2021/03/13 06:40:47;;;;;;;6.45;1.92;;;;;;;;;;5101377;28;20015;-83
2021/03/13 06:43:19;;;;;;;4.32;1.20;;;;;;;;;;5119904;28;20496;-84
2021/03/13 06:45:53;;;;;;;4.00;1.13;;;;;;;;;;5104675;28;20051;-84
2021/03/13 06:48:55;;;;;;;4.55;1.05;;;;;;;;;;5105805;28;20097;-84
2021/03/13 06:51:28;;;;;;;3.50;1.08;;;;;;;;;;5070611;28;20785;-85
2021/03/13 06:54:04;;;;;;;7.90;1.65;;;;;;;;;;5099749;28;20064;-84
2021/03/13 06:56:31;;;;;;;4.80;1.55;;;;;;;;;;5120479;27;20041;-84
2021/03/13 06:58:57;;;;;;;6.07;1.25;;;;;;;;;;5109182;28;20026;-85
2021/03/13 07:01:27;;;;;;;6.80;3.67;;;;;;;;;;5094052;28;20065;-84
2021/03/13 07:03:52;;;;;;;5.90;1.92;;;;;;;;;;5107134;28;20039;-82
2021/03/13 07:06:18;;;;;;;7.50;1.70;;;;;;;;;;5106505;28;20036;-82
2021/03/13 07:08:45;;;;;;;4.60;1.13;;;;;;;;;;5111456;28;20024;-82
2021/03/13 07:11:11;;;;;;;5.70;1.45;;;;;;;;;;5111727;28;20023;-84
2021/03/13 07:13:37;;;;;;;6.63;1.15;;;;;;;;;;5116154;28;20016;-82
2021/03/13 07:16:22;;;;;;;9.07;2.10;;;;;;;;;;5122728;28;20031;-83
2021/03/13 07:18:47;;;;;;;5.90;1.60;;;;;;;;;;5114515;28;20040;-82
2021/03/13 07:21:14;;;;;;;3.88;1.50;;;;;;;;;;5115598;28;20026;-81
2021/03/13 07:23:42;;;;;;;5.13;1.83;;;;;;;;;;5107210;28;20024;-82
2021/03/13 07:26:09;;;;;;;3.45;1.00;;;;;;;;;;5103543;27;20028;-82
2021/03/13 07:28:35;;;;;;;4.35;0.88;;;;;;;;;;5100499;28;20049;-82
2021/03/13 07:31:03;;;;;;;3.78;1.58;;;;;;;;;;5100816;28;20020;-82
2021/03/13 07:33:29;;;;;;;3.85;1.08;;;;;;;;;;5101826;28;20020;-82
2021/03/13 07:35:55;;;;;;;8.23;1.77;;;;;;;;;;5102934;28;20081;-81
2021/03/13 07:38:21;;;;;;;4.88;1.30;;;;;;;;;;5105850;28;20423;-82
2021/03/13 07:40:48;;;;;;;6.80;1.65;;;;;;;;;;5107258;28;20020;-82
2021/03/13 07:43:15;;;;;;;11.20;1.33;;;;;;;;;;5099609;28;20077;-82
2021/03/13 07:45:41;;;;;;;6.55;2.70;;;;;;;;;;5094708;28;20016;-82
2021/03/13 07:50:25;;;;;;;9.07;2.55;;;;;;;;;;5114739;27;20423;-82
2021/03/13 07:52:51;;;;;;;13.50;7.75;;;;;;;;;;5102168;28;20025;-82
2021/03/13 07:55:17;;;;;;;19.05;6.07;;;;;;;;;;5096212;28;20719;-82
2021/03/13 07:57:47;;;;;;;14.13;7.53;;;;;;;;;;5095877;28;20031;-82
2021/03/13 08:00:13;;;;;;;37.95;18.10;;;;;;;;;;5100855;28;20024;-82
2021/03/13 08:02:40;;;;;;;24.30;11.98;;;;;;;;;;5101686;28;20458;-82
2021/03/13 08:05:16;;;;;;;5.03;1.58;;;;;;;;;;5096534;28;20510;-82
2021/03/13 08:07:55;;;;;;;3.33;1.13;;;;;;;;;;5102325;28;20471;-82
2021/03/13 08:10:40;;;;;;;4.10;1.55;;;;;;;;;;5100234;28;20051;-82
2021/03/13 08:13:06;;;;;;;4.65;2.28;;;;;;;;;;5099066;28;20042;-82
2021/03/13 08:15:32;;;;;;;6.45;1.27;;;;;;;;;;5097608;28;20121;-82
2021/03/13 08:17:58;;;;;;;8.98;1.38;;;;;;;;;;5098477;28;20026;-83
2021/03/13 08:20:30;;;;;;;2.95;1.23;;;;;;;;;;5099255;28;20092;-82
2021/03/13 08:23:22;;;;;;;7.38;1.30;;;;;;;;;;5105625;28;20024;-82
2021/03/13 08:25:58;;;;;;;2.25;0.77;;;;;;;;;;5104840;28;20119;-83
2021/03/13 08:28:43;;;;;;;5.40;2.08;;;;;;;;;;5097890;28;20024;-83
2021/03/13 08:31:24;;;;;;;6.22;1.98;;;;;;;;;;5115692;28;20024;-83
2021/03/13 08:33:50;;;;;;;6.63;1.23;;;;;;;;;;5120127;28;20070;-83
2021/03/13 08:36:17;;;;;;;4.45;1.55;;;;;;;;;;5099822;28;20453;-83
2021/03/13 08:38:56;;;;;;;5.88;0.95;;;;;;;;;;5103301;28;20028;-83
2021/03/13 08:41:43;;;;;;;5.50;1.88;;;;;;;;;;5102346;28;20372;-83
2021/03/13 08:44:15;;;;;;;5.15;2.13;;;;;;;;;;5095274;28;20073;-83
2021/03/13 08:46:47;;;;;;;12.35;1.88;;;;;;;;;;5100112;28;20028;-83
2021/03/13 08:49:34;;;;;;;11.00;4.00;;;;;;;;;;5098516;28;20019;-88
2021/03/13 08:52:03;;;;;;;3.70;1.17;;;;;;;;;;5088696;28;20024;-88
2021/03/13 08:54:38;;;;;;;3.65;1.00;;;;;;;;;;5096476;28;20051;-86
2021/03/13 08:57:04;;;;;;;4.00;1.20;;;;;;;;;;5091913;28;20025;-85
2021/03/13 08:59:30;;;;;;;5.07;1.45;;;;;;;;;;5089147;28;20071;-84
2021/03/13 09:02:12;;;;;;;2.83;1.00;;;;;;;;;;5074000;28;20700;-84
2021/03/13 09:04:39;;;;;;;3.22;0.88;;;;;;;;;;5078520;28;20032;-84
2021/03/13 09:07:05;;;;;;;4.68;1.98;;;;;;;;;;5084725;28;20048;-84
2021/03/13 09:09:32;;;;;;;5.28;1.00;;;;;;;;;;5085748;28;20021;-84
2021/03/13 09:11:59;;;;;;;4.97;1.40;;;;;;;;;;5084372;28;20024;-84
2021/03/13 09:14:25;;;;;;;2.88;0.80;;;;;;;;;;5083714;28;20507;-84
2021/03/13 09:16:51;;;;;;;4.25;1.25;;;;;;;;;;5075325;28;20021;-85
2021/03/13 09:19:16;;;;;;;2.20;0.93;;;;;;;;;;5076917;28;20724;-84
2021/03/13 09:21:53;;;;;;;3.33;1.23;;;;;;;;;;5082446;28;20031;-84
2021/03/13 09:24:20;;;;;;;4.53;0.95;;;;;;;;;;5083082;28;20032;-85
2021/03/13 09:26:53;;;;;;;5.90;1.67;;;;;;;;;;5077939;28;20124;-84
2021/03/13 09:29:35;;;;;;;2.90;1.00;;;;;;;;;;5083548;28;20024;-84
2021/03/13 09:32:03;;;;;;;4.40;1.50;;;;;;;;;;5072186;28;20388;-85
2021/03/13 09:34:30;;;;;;;6.95;1.48;;;;;;;;;;5077277;28;20062;-84
2021/03/13 09:36:55;;;;;;;3.25;1.08;;;;;;;;;;5078367;28;20060;-85
2021/03/13 09:54:40;;;;;;;18.95;7.78;;;;;;;;;;6251470;23;20100;-84
2021/03/13 09:57:12;;;;;;;22.70;13.25;;;;;;;;;;6224588;23;20016;-84
2021/03/13 09:59:38;;;;;;;14.48;7.45;;;;;;;;;;6223774;23;20090;-83
2021/03/13 10:02:04;;;;;;;6.82;3.88;;;;;;;;;;6251722;23;19999;-83
2021/03/13 10:04:31;;;;;;;4.75;1.60;;;;;;;;;;6251033;23;20612;-83
2021/03/13 10:06:57;;;;;;;3.08;1.20;;;;;;;;;;6224667;23;20062;-83
2021/03/13 10:09:22;;;;;;;3.15;1.50;;;;;;;;;;6251611;22;20000;-83
2021/03/13 10:11:48;;;;;;;3.65;1.90;;;;;;;;;;6251606;23;20482;-83
2021/03/13 10:14:20;;;;;;;2.63;1.23;;;;;;;;;;6250751;23;20002;-84
2021/03/13 10:16:47;;;;;;;3.25;1.25;;;;;;;;;;6224695;23;20004;-84
2021/03/13 10:19:31;;;;;;;3.60;2.08;;;;;;;;;;6224441;23;20000;-84
2021/03/13 10:22:18;;;;;;;5.60;1.13;;;;;;;;;;6251580;23;20038;-83
2021/03/13 10:24:52;;;;;;;2.72;0.90;;;;;;;;;;6223449;23;20007;-83
2021/03/13 10:27:20;;;;;;;1.48;0.60;;;;;;;;;;6224429;23;20018;-83
2021/03/13 10:29:56;;;;;;;2.58;1.13;;;;;;;;;;6251370;22;20004;-83
2021/03/13 10:32:27;;;;;;;2.25;0.88;;;;;;;;;;6251625;23;20003;-83
2021/03/13 10:35:06;;;;;;;3.20;1.20;;;;;;;;;;6223751;23;20062;-83
2021/03/13 10:37:35;;;;;;;3.55;1.38;;;;;;;;;;6223962;23;20533;-83
2021/03/13 10:40:01;;;;;;;2.15;0.88;;;;;;;;;;6251259;22;20517;-83
2021/03/13 10:42:27;;;;;;;3.95;1.20;;;;;;;;;;6224287;23;20010;-83
2021/03/13 10:44:53;;;;;;;3.13;1.10;;;;;;;;;;6250817;23;19995;-83
2021/03/13 10:47:28;;;;;;;4.05;1.00;;;;;;;;;;6224634;23;20094;-83
2021/03/13 10:49:58;;;;;;;3.13;1.00;;;;;;;;;;6224132;23;20370;-83
2021/03/13 10:52:30;;;;;;;3.47;1.00;;;;;;;;;;6246590;23;20015;-83
2021/03/13 10:54:56;;;;;;;5.28;0.80;;;;;;;;;;6217186;23;20011;-83
2021/03/13 10:57:22;;;;;;;2.53;0.77;;;;;;;;;;6244615;23;20083;-83
2021/03/13 10:59:48;;;;;;;2.50;0.85;;;;;;;;;;6217470;23;20446;-83
2021/03/13 11:02:14;;;;;;;4.40;1.38;;;;;;;;;;6217201;23;20091;-84
2021/03/13 11:04:41;;;;;;;2.10;1.17;;;;;;;;;;6243645;23;20419;-83
2021/03/13 11:07:07;;;;;;;5.10;2.67;;;;;;;;;;6244572;23;20373;-83
2021/03/13 11:09:33;;;;;;;10.63;2.60;;;;;;;;;;6244559;22;20386;-83
2021/03/13 11:11:59;;;;;;;6.00;2.90;;;;;;;;;;6217690;23;20000;-84
2021/03/13 11:14:24;;;;;;;2.85;1.10;;;;;;;;;;6245123;23;20449;-84
2021/03/13 11:19:08;;;;;;;9.50;4.05;;;;;;;;;;5111047;27;20353;-84
2021/03/13 11:21:35;;;;;;;7.57;2.63;;;;;;;;;;5100053;28;20488;-84
2021/03/13 11:24:01;;;;;;;10.60;6.22;;;;;;;;;;5100425;28;20487;-84
2021/03/13 11:26:27;;;;;;;7.68;3.30;;;;;;;;;;5099925;28;20028;-85
2021/03/13 11:28:53;;;;;;;4.63;2.35;;;;;;;;;;5100378;28;20123;-85
2021/03/13 11:31:18;;;;;;;6.70;3.40;;;;;;;;;;5100940;28;20020;-85
2021/03/13 11:33:45;;;;;;;8.93;3.45;;;;;;;;;;5095655;28;20111;-85
2021/03/13 11:36:11;;;;;;;4.32;2.30;;;;;;;;;;5097931;28;20028;-85
2021/03/13 11:38:37;;;;;;;3.08;1.33;;;;;;;;;;5096488;28;20031;-84
2021/03/13 11:41:04;;;;;;;3.22;1.35;;;;;;;;;;5096582;28;20114;-84
2021/03/13 11:43:30;;;;;;;2.92;1.42;;;;;;;;;;5098092;28;20025;-85
2021/03/13 11:46:00;;;;;;;5.97;2.47;;;;;;;;;;5098606;28;20059;-84
2021/03/13 11:48:25;;;;;;;3.15;1.55;;;;;;;;;;5095465;28;20032;-85
2021/03/13 11:50:51;;;;;;;17.08;8.10;;;;;;;;;;5096476;28;20025;-85
2021/03/13 11:53:18;;;;;;;10.98;4.88;;;;;;;;;;5096673;28;20038;-85
2021/03/13 11:55:44;;;;;;;24.48;10.15;;;;;;;;;;5094377;28;20035;-84
2021/03/13 11:58:11;;;;;;;15.70;8.07;;;;;;;;;;5096176;28;20024;-84
2021/03/13 12:00:36;;;;;;;11.75;4.60;;;;;;;;;;5068335;22;20046;-87
2021/03/13 12:03:02;;;;;;;5.13;2.35;;;;;;;;;;5055271;28;20029;-88
2021/03/13 12:05:28;;;;;;;3.72;2.05;;;;;;;;;;5040270;28;20022;-88
2021/03/13 12:07:53;;;;;;;2.72;1.42;;;;;;;;;;5053677;28;20028;-87
2021/03/13 12:10:19;;;;;;;3.65;1.50;;;;;;;;;;5060390;28;20036;-88
2021/03/13 12:12:45;;;;;;;4.25;1.70;;;;;;;;;;5067348;28;20024;-89
2021/03/13 12:15:11;;;;;;;3.25;1.70;;;;;;;;;;5063993;28;20358;-90
2021/03/13 12:17:37;;;;;;;4.50;1.88;;;;;;;;;;5064298;28;20107;-89
2021/03/13 12:20:16;;;;;;;3.13;1.33;;;;;;;;;;5069464;28;20024;-89
2021/03/13 12:22:42;;;;;;;10.70;4.05;;;;;;;;;;5064254;28;20023;-89
2021/03/13 12:25:08;;;;;;;4.68;2.45;;;;;;;;;;5059470;28;20033;-88
2021/03/13 12:27:40;;;;;;;2.80;1.50;;;;;;;;;;5056098;28;20488;-89
2021/03/13 12:30:15;;;;;;;3.15;1.60;;;;;;;;;;5059680;28;20119;-88
2021/03/13 12:32:41;;;;;;;8.68;2.85;;;;;;;;;;5056912;28;20075;-88
2021/03/13 12:35:08;;;;;;;6.70;2.47;;;;;;;;;;5054296;28;20025;-88
2021/03/13 12:37:35;;;;;;;5.38;2.30;;;;;;;;;;5050811;28;20083;-88
2021/03/13 12:40:05;;;;;;;3.13;1.45;;;;;;;;;;5054195;28;20075;-89
2021/03/13 12:42:31;;;;;;;4.82;2.53;;;;;;;;;;5053906;28;20574;-88
2021/03/13 12:44:57;;;;;;;11.77;6.15;;;;;;;;;;5053919;28;20643;-89
2021/03/13 12:47:22;;;;;;;22.73;15.18;;;;;;;;;;5053962;28;20025;-89
2021/03/13 12:49:48;;;;;;;17.48;10.07;;;;;;;;;;5043012;28;20025;-89
2021/03/13 12:52:13;;;;;;;21.40;12.52;;;;;;;;;;5053934;28;20111;-89
2021/03/13 12:54:40;;;;;;;40.85;22.05;;;;;;;;;;5053660;28;20029;-89
2021/03/13 12:57:06;;;;;;;20.67;11.55;;;;;;;;;;5041849;28;20053;-88
2021/03/13 12:59:32;;;;;;;10.40;6.40;;;;;;;;;;5049554;28;20021;-89
2021/03/13 13:01:57;;;;;;;13.23;6.40;;;;;;;;;;5054084;28;20028;-89
2021/03/13 13:04:23;;;;;;;11.05;4.60;;;;;;;;;;5054696;28;20104;-89
2021/03/13 13:06:49;;;;;;;9.90;5.65;;;;;;;;;;5044706;28;20029;-89
2021/03/13 13:09:14;;;;;;;12.68;6.90;;;;;;;;;;5053654;28;20025;-88
2021/03/13 13:11:43;;;;;;;9.02;2.67;;;;;;;;;;5070052;28;20111;-89
2021/03/13 13:14:09;;;;;;;7.70;3.63;;;;;;;;;;5049042;28;20143;-88
2021/03/13 13:16:35;;;;;;;3.42;1.75;;;;;;;;;;5053545;28;20032;-89
2021/03/13 13:19:01;;;;;;;8.75;2.53;;;;;;;;;;5053741;28;20071;-89
2021/03/13 13:21:32;;;;;;;5.15;1.42;;;;;;;;;;5036020;28;20022;-89
2021/03/13 13:23:58;;;;;;;6.55;2.58;;;;;;;;;;5041624;28;20029;-89
2021/03/13 13:26:24;;;;;;;12.32;3.47;;;;;;;;;;5045475;28;20078;-89
2021/03/13 13:28:53;;;;;;;4.85;2.03;;;;;;;;;;5048107;28;20385;-89
2021/03/13 13:31:19;;;;;;;6.78;2.35;;;;;;;;;;5049062;28;20131;-88
2021/03/13 13:33:45;;;;;;;8.15;2.17;;;;;;;;;;5048923;28;20029;-89
2021/03/13 13:36:12;;;;;;;8.82;3.13;;;;;;;;;;5049162;28;20080;-88
2021/03/13 13:40:56;;;;;;;6.53;1.92;;;;;;;;;;5115720;27;20427;-78
2021/03/13 13:43:22;;;;;;;4.47;1.52;;;;;;;;;;5106756;28;20023;-78
2021/03/13 13:45:48;;;;;;;6.68;2.22;;;;;;;;;;5095426;28;20048;-78
2021/03/13 13:48:14;;;;;;;8.50;2.03;;;;;;;;;;5093773;28;20099;-78
2021/03/13 13:50:40;;;;;;;7.70;2.50;;;;;;;;;;5098453;28;20078;-78
2021/03/13 13:53:05;;;;;;;10.15;3.00;;;;;;;;;;5095595;28;20050;-78
2021/03/13 13:55:31;;;;;;;4.05;1.65;;;;;;;;;;5097630;28;20078;-78
2021/03/13 13:57:57;;;;;;;5.00;1.90;;;;;;;;;;5098606;28;20027;-78
2021/03/13 14:00:24;;;;;;;4.57;2.28;;;;;;;;;;5099073;28;20094;-78
2021/03/13 14:02:51;;;;;;;5.10;1.98;;;;;;;;;;5096483;28;20028;-78
2021/03/13 14:05:17;;;;;;;8.25;1.98;;;;;;;;;;5091691;28;20032;-78
2021/03/13 14:07:42;;;;;;;5.68;1.65;;;;;;;;;;5094856;28;20479;-77
2021/03/13 14:10:09;;;;;;;10.07;2.70;;;;;;;;;;5094533;28;20547;-78
2021/03/13 14:12:34;;;;;;;7.95;1.55;;;;;;;;;;5098414;28;20027;-77
2021/03/13 14:15:00;;;;;;;5.80;2.13;;;;;;;;;;5100484;28;20065;-79
2021/03/13 14:17:26;;;;;;;7.68;1.40;;;;;;;;;;5089118;28;20032;-78
2021/03/13 14:19:51;;;;;;;4.82;1.50;;;;;;;;;;5093917;28;20396;-79
2021/03/13 14:22:17;;;;;;;3.83;1.55;;;;;;;;;;5087791;28;20115;-79
2021/03/13 14:24:43;;;;;;;4.15;1.30;;;;;;;;;;5093128;28;20078;-78
2021/03/13 14:27:09;;;;;;;3.60;2.03;;;;;;;;;;5089505;28;20373;-79
2021/03/13 14:29:36;;;;;;;7.78;1.98;;;;;;;;;;5097106;28;20103;-78
2021/03/13 14:32:02;;;;;;;3.70;1.27;;;;;;;;;;5101754;28;19923;-79
2021/03/13 14:34:27;;;;;;;6.05;1.52;;;;;;;;;;5104874;28;20055;-79
2021/03/13 14:36:54;;;;;;;7.68;2.03;;;;;;;;;;5100170;28;20473;-79
2021/03/13 14:39:19;;;;;;;3.85;1.80;;;;;;;;;;5105370;28;20051;-79
2021/03/13 14:41:46;;;;;;;5.60;1.30;;;;;;;;;;5100478;28;20047;-79
2021/03/13 14:44:12;;;;;;;3.97;1.48;;;;;;;;;;5095681;28;20028;-79
2021/03/13 14:48:57;;;;;;;6.72;2.40;;;;;;;;;;5102324;28;20448;-79
2021/03/13 14:51:22;;;;;;;7.88;3.33;;;;;;;;;;5093544;28;20036;-78
2021/03/13 14:53:49;;;;;;;12.75;5.78;;;;;;;;;;5099628;28;20035;-78
2021/03/13 14:56:15;;;;;;;3.78;1.73;;;;;;;;;;5096242;28;20023;-78
2021/03/13 14:58:41;;;;;;;7.50;3.25;;;;;;;;;;5088973;28;20048;-79
2021/03/13 15:01:06;;;;;;;9.07;2.80;;;;;;;;;;5091309;28;20028;-79
2021/03/13 15:03:32;;;;;;;8.48;2.03;;;;;;;;;;5089389;28;20136;-79
2021/03/13 15:05:57;;;;;;;3.97;1.60;;;;;;;;;;5092551;28;20106;-79
2021/03/13 15:08:23;;;;;;;4.40;2.13;;;;;;;;;;5090823;28;20107;-79
2021/03/13 15:10:49;;;;;;;2.10;0.90;;;;;;;;;;5101115;28;20073;-78
2021/03/13 15:13:15;;;;;;;4.00;1.20;;;;;;;;;;5095609;28;20361;-77
2021/03/13 15:15:41;;;;;;;3.72;1.42;;;;;;;;;;5100775;28;20091;-78
2021/03/13 15:18:07;;;;;;;7.57;1.23;;;;;;;;;;5095947;28;20514;-78
2021/03/13 15:20:32;;;;;;;3.75;1.10;;;;;;;;;;5070062;28;20033;-79
2021/03/13 15:22:58;;;;;;;5.82;1.63;;;;;;;;;;5081083;28;20024;-78
2021/03/13 15:25:24;;;;;;;6.10;1.35;;;;;;;;;;5095465;28;20093;-78
2021/03/13 15:27:50;;;;;;;7.82;1.98;;;;;;;;;;5103561;28;20028;-78
2021/03/13 15:30:19;;;;;;;4.60;1.80;;;;;;;;;;5093630;28;20028;-78
2021/03/13 15:32:46;;;;;;;6.18;1.45;;;;;;;;;;5100840;28;20044;-78
2021/03/13 15:37:31;;;;;;;4.05;1.55;;;;;;;;;;5117919;27;20407;-78
2021/03/13 15:39:56;;;;;;;8.38;1.30;;;;;;;;;;5105145;28;20032;-78
2021/03/13 15:42:24;;;;;;;3.25;1.38;;;;;;;;;;5100795;28;20566;-79
2021/03/13 15:44:50;;;;;;;3.30;1.77;;;;;;;;;;5100736;28;20012;-77
2021/03/13 15:47:15;;;;;;;3.42;1.27;;;;;;;;;;5103798;28;20028;-79
2021/03/13 15:49:41;;;;;;;5.85;2.63;;;;;;;;;;5107160;28;20083;-78
2021/03/13 15:52:11;;;;;;;4.18;1.88;;;;;;;;;;5098510;28;20024;-79
2021/03/13 15:54:37;;;;;;;5.55;1.38;;;;;;;;;;5094283;28;20081;-77
2021/03/13 15:57:03;;;;;;;4.53;1.00;;;;;;;;;;5102955;28;20016;-78
2021/03/13 15:59:28;;;;;;;3.58;1.27;;;;;;;;;;5101077;28;20032;-78
2021/03/13 16:01:54;;;;;;;3.45;1.80;;;;;;;;;;5104108;28;20042;-79
2021/03/13 16:04:19;;;;;;;7.70;1.88;;;;;;;;;;5092893;28;20437;-78
2021/03/13 16:06:45;;;;;;;6.07;1.35;;;;;;;;;;5089261;28;20623;-78
2021/03/13 16:09:11;;;;;;;7.35;2.55;;;;;;;;;;5103729;28;20032;-80
2021/03/13 16:11:40;;;;;;;6.55;1.52;;;;;;;;;;5094251;28;20024;-78
2021/03/13 16:14:06;;;;;;;6.60;1.45;;;;;;;;;;5101304;28;20054;-77
2021/03/13 16:16:31;;;;;;;5.95;1.38;;;;;;;;;;5092072;28;20024;-77
2021/03/13 16:18:57;;;;;;;5.45;1.60;;;;;;;;;;5091245;28;20038;-78
2021/03/13 16:21:22;;;;;;;4.88;1.90;;;;;;;;;;5095064;28;20023;-78
2021/03/13 16:23:48;;;;;;;7.43;2.20;;;;;;;;;;5096696;28;20020;-78
2021/03/13 16:26:14;;;;;;;3.22;1.10;;;;;;;;;;5098364;28;20024;-78
2021/03/13 16:28:40;;;;;;;1.75;1.05;;;;;;;;;;5089007;28;20043;-77
2021/03/13 16:31:05;;;;;;;2.08;0.82;;;;;;;;;;5101238;28;20030;-78
2021/03/13 16:33:31;;;;;;;4.47;1.65;;;;;;;;;;5087004;28;20488;-78
2021/03/13 16:35:57;;;;;;;5.80;2.13;;;;;;;;;;5096065;28;20853;-78
2021/03/13 16:38:23;;;;;;;8.50;3.53;;;;;;;;;;5098430;28;20376;-77
2021/03/13 16:40:49;;;;;;;4.80;2.83;;;;;;;;;;5096812;28;20048;-77
2021/03/13 16:43:14;;;;;;;10.63;2.78;;;;;;;;;;5091901;28;20376;-78
2021/03/13 16:45:40;;;;;;;4.97;2.13;;;;;;;;;;5094825;28;20035;-78
2021/03/13 16:48:06;;;;;;;4.57;1.63;;;;;;;;;;5089629;28;20451;-78
2021/03/13 16:50:32;;;;;;;4.10;1.60;;;;;;;;;;5081145;28;20021;-78
2021/03/13 16:55:15;;;;;;;5.93;1.55;;;;;;;;;;5074834;28;20357;-78
2021/03/13 16:57:41;;;;;;;7.35;2.10;;;;;;;;;;5062364;28;20033;-78
2021/03/13 17:00:08;;;;;;;5.70;4.10;;;;;;;;;;5058942;28;20035;-78
2021/03/13 17:02:34;;;;;;;8.40;4.45;;;;;;;;;;5058978;28;20462;-78
2021/03/13 17:05:00;;;;;;;12.77;6.47;;;;;;;;;;5058127;28;20020;-77
2021/03/13 17:07:25;;;;;;;6.93;4.20;;;;;;;;;;5053581;28;20025;-78
2021/03/13 17:09:51;;;;;;;17.73;11.00;;;;;;;;;;5049676;28;20021;-78
2021/03/13 17:12:17;;;;;;;28.02;15.75;;;;;;;;;;5041918;28;20021;-76
2021/03/13 17:14:42;;;;;;;33.38;19.83;;;;;;;;;;5044441;28;20036;-77
2021/03/13 17:17:08;;;;;;;23.55;14.88;;;;;;;;;;5048031;28;20087;-79
2021/03/13 17:19:34;;;;;;;44.40;27.08;;;;;;;;;;5059170;28;20017;-79
2021/03/13 17:24:18;;;;;;;16.45;9.77;;;;;;;;;;5072782;28;20390;-80
2021/03/13 17:26:44;;;;;;;35.75;20.90;;;;;;;;;;5059040;28;20386;-80
2021/03/13 17:29:10;;;;;;;14.43;6.88;;;;;;;;;;5039172;28;20489;-78
2021/03/13 17:31:36;;;;;;;12.95;6.32;;;;;;;;;;5044257;28;20025;-78
2021/03/13 17:34:02;;;;;;;8.23;3.90;;;;;;;;;;5055441;28;20090;-77
2021/03/13 17:36:27;;;;;;;9.30;4.28;;;;;;;;;;5044039;28;20525;-78
2021/03/13 17:38:55;;;;;;;8.57;4.18;;;;;;;;;;5056697;28;20025;-76
2021/03/13 17:41:20;;;;;;;5.55;3.22;;;;;;;;;;5040209;28;20091;-77
2021/03/13 17:43:46;;;;;;;12.85;8.52;;;;;;;;;;5042096;28;20056;-76
2021/03/13 17:46:12;;;;;;;18.05;11.57;;;;;;;;;;5042853;28;20033;-76
2021/03/13 17:48:38;;;;;;;24.20;12.52;;;;;;;;;;5045410;28;20021;-77
2021/03/13 17:51:04;;;;;;;32.20;16.13;;;;;;;;;;5047856;28;20025;-76
2021/03/13 17:53:30;;;;;;;19.25;9.07;;;;;;;;;;5034347;28;20536;-78
2021/03/13 17:58:14;;;;;;;15.70;8.18;;;;;;;;;;5065804;28;20381;-76
2021/03/13 18:02:58;;;;;;;25.35;12.32;;;;;;;;;;5102940;27;20405;-76
2021/03/13 18:05:24;;;;;;;21.77;10.90;;;;;;;;;;5092875;28;20028;-79
2021/03/13 18:07:50;;;;;;;18.55;9.07;;;;;;;;;;5085377;28;20047;-78
2021/03/13 18:10:15;;;;;;;18.40;8.13;;;;;;;;;;5083584;28;20383;-76
2021/03/13 18:12:41;;;;;;;27.58;10.77;;;;;;;;;;5101470;22;20054;-80
2021/03/13 18:15:08;;;;;;;11.48;5.35;;;;;;;;;;5074483;28;20013;-80
2021/03/13 18:17:33;;;;;;;10.07;2.92;;;;;;;;;;5065605;28;20031;-80
2021/03/13 18:19:59;;;;;;;16.75;6.57;;;;;;;;;;5076094;28;20024;-80
2021/03/13 18:22:25;;;;;;;20.00;5.50;;;;;;;;;;5081073;28;20498;-80
2021/03/13 18:24:51;;;;;;;20.40;8.73;;;;;;;;;;5062604;28;20029;-80
2021/03/13 18:27:17;;;;;;;13.95;4.53;;;;;;;;;;5080757;28;20092;-80
2021/03/13 18:29:42;;;;;;;8.70;4.10;;;;;;;;;;5075027;28;20025;-80
2021/03/13 18:32:08;;;;;;;7.82;3.05;;;;;;;;;;5071643;28;20068;-80
2021/03/13 18:34:34;;;;;;;8.60;4.05;;;;;;;;;;5071905;28;20029;-79
2021/03/13 18:36:59;;;;;;;10.73;3.78;;;;;;;;;;5067000;28;20388;-79
2021/03/13 18:39:25;;;;;;;4.70;2.15;;;;;;;;;;5066977;28;20024;-80
2021/03/13 18:41:51;;;;;;;8.20;2.50;;;;;;;;;;5070985;28;20051;-79
2021/03/13 18:44:16;;;;;;;18.33;9.07;;;;;;;;;;5071680;28;20021;-79
2021/03/13 18:46:42;;;;;;;28.35;11.07;;;;;;;;;;5065572;28;20412;-79
2021/03/13 18:49:08;;;;;;;21.30;10.65;;;;;;;;;;5074939;28;20047;-79
2021/03/13 18:51:34;;;;;;;21.85;9.63;;;;;;;;;;5066614;28;20400;-83
2021/03/13 18:53:59;;;;;;;17.05;8.95;;;;;;;;;;5070357;28;20720;-80
2021/03/13 18:56:25;;;;;;;16.10;7.93;;;;;;;;;;5066353;28;19919;-80
2021/03/13 18:58:51;;;;;;;19.30;8.38;;;;;;;;;;5068778;28;20040;-79
2021/03/13 19:01:17;;;;;;;9.93;3.85;;;;;;;;;;5074033;28;20036;-79
2021/03/13 19:03:42;;;;;;;5.90;2.05;;;;;;;;;;5073371;28;20470;-79
2021/03/13 19:06:08;;;;;;;10.90;4.00;;;;;;;;;;5077459;28;20047;-79
2021/03/13 19:08:34;;;;;;;10.52;3.92;;;;;;;;;;5073878;28;20028;-80
2021/03/13 19:10:59;;;;;;;10.93;3.78;;;;;;;;;;5067734;28;20020;-79
2021/03/13 19:13:25;;;;;;;6.57;3.53;;;;;;;;;;5065755;28;20024;-79
2021/03/13 19:15:51;;;;;;;10.05;3.35;;;;;;;;;;5060615;28;20029;-79
2021/03/13 19:18:17;;;;;;;6.70;2.55;;;;;;;;;;5066246;28;20100;-79
2021/03/13 19:20:43;;;;;;;7.43;2.28;;;;;;;;;;5059533;28;20092;-79
2021/03/13 19:23:09;;;;;;;8.90;2.80;;;;;;;;;;5056369;28;20116;-79
2021/03/13 19:25:35;;;;;;;8.02;2.30;;;;;;;;;;5056853;28;20090;-79
2021/03/13 19:28:02;;;;;;;4.97;1.85;;;;;;;;;;5042283;28;20044;-79
2021/03/13 19:30:29;;;;;;;5.72;2.47;;;;;;;;;;5050848;28;20492;-80
2021/03/13 19:32:56;;;;;;;9.23;2.83;;;;;;;;;;5050869;28;20055;-79
2021/03/13 19:35:21;;;;;;;17.52;6.50;;;;;;;;;;5052641;28;20412;-80
2021/03/13 19:37:49;;;;;;;8.23;3.67;;;;;;;;;;5058300;28;20123;-80
2021/03/13 19:40:15;;;;;;;6.88;1.88;;;;;;;;;;5062312;28;20070;-80
2021/03/13 19:42:45;;;;;;;6.22;1.23;;;;;;;;;;5056396;28;20032;-80
2021/03/13 19:45:14;;;;;;;10.68;2.17;;;;;;;;;;5052655;28;20021;-80
2021/03/13 19:47:39;;;;;;;4.07;1.17;;;;;;;;;;5056324;28;20037;-80
2021/03/13 19:50:06;;;;;;;3.05;1.40;;;;;;;;;;5047390;28;20021;-80
2021/03/13 19:52:32;;;;;;;6.57;2.13;;;;;;;;;;5057708;28;20035;-80
2021/03/13 19:54:59;;;;;;;6.97;2.72;;;;;;;;;;5057064;28;20057;-79
2021/03/13 19:57:26;;;;;;;8.15;2.88;;;;;;;;;;5061103;28;20583;-80
2021/03/13 19:59:52;;;;;;;3.22;1.42;;;;;;;;;;5056855;28;20040;-79
2021/03/13 20:02:18;;;;;;;3.78;1.10;;;;;;;;;;5060004;28;20036;-79
2021/03/13 20:04:43;;;;;;;7.65;1.90;;;;;;;;;;5048483;28;20031;-80
2021/03/13 20:07:10;;;;;;;5.80;2.13;;;;;;;;;;5066915;28;20025;-80
2021/03/13 20:09:36;;;;;;;8.93;3.28;;;;;;;;;;5063211;28;20485;-79
2021/03/13 20:12:02;;;;;;;3.08;0.70;;;;;;;;;;5057883;28;20051;-79
2021/03/13 20:14:27;;;;;;;3.83;0.80;;;;;;;;;;5057843;28;20096;-79
2021/03/13 20:16:53;;;;;;;3.08;1.23;;;;;;;;;;5053507;28;20049;-80
2021/03/13 20:19:19;;;;;;;4.65;1.40;;;;;;;;;;5055281;28;20797;-79
2021/03/13 20:21:45;;;;;;;4.32;0.82;;;;;;;;;;5049811;28;20029;-79
2021/03/13 20:24:11;;;;;;;2.35;0.80;;;;;;;;;;5053769;28;20021;-79
2021/03/13 20:26:36;;;;;;;3.30;0.98;;;;;;;;;;5056314;28;20123;-79
2021/03/13 20:29:02;;;;;;;4.05;1.00;;;;;;;;;;5048254;28;20020;-79
2021/03/13 20:31:28;;;;;;;3.70;0.90;;;;;;;;;;5048088;28;20493;-79
2021/03/13 20:33:54;;;;;;;4.38;1.10;;;;;;;;;;5061280;28;20036;-79
2021/03/13 20:36:19;;;;;;;1.50;0.60;;;;;;;;;;5055122;28;20053;-79
2021/03/13 20:38:47;;;;;;;1.95;0.75;;;;;;;;;;5056551;28;20058;-79
2021/03/13 20:41:12;;;;;;;2.78;0.70;;;;;;;;;;5047780;28;20032;-79
2021/03/13 20:43:38;;;;;;;1.60;0.70;;;;;;;;;;5061447;28;20052;-79
2021/03/13 20:48:22;;;;;;;4.13;1.50;;;;;;;;;;5115544;27;20488;-79
2021/03/13 20:50:48;;;;;;;3.65;1.10;;;;;;;;;;5094049;28;20503;-80
2021/03/13 20:55:31;;;;;;;3.20;1.17;;;;;;;;;;5070893;28;25089;-80
2021/03/13 21:00:15;;;;;;;1.83;0.70;;;;;;;;;;5091263;28;20405;-80
2021/03/13 21:02:41;;;;;;;2.45;1.05;;;;;;;;;;5064054;28;20025;-80
2021/03/13 21:05:07;;;;;;;2.35;1.00;;;;;;;;;;5062518;28;20036;-80
2021/03/13 21:07:33;;;;;;;4.75;0.90;;;;;;;;;;5078117;28;20024;-80
2021/03/13 21:09:58;;;;;;;5.47;1.30;;;;;;;;;;5059528;28;20483;-80
2021/03/13 21:12:24;;;;;;;4.78;1.63;;;;;;;;;;5064945;28;20036;-80
2021/03/13 21:14:50;;;;;;;3.25;1.30;;;;;;;;;;5057510;28;20036;-80
2021/03/13 21:17:16;;;;;;;6.10;1.35;;;;;;;;;;5070978;28;20612;-79
2021/03/13 21:19:41;;;;;;;3.13;1.00;;;;;;;;;;5072397;28;20025;-80